Time;durP1;ratioP1;P1;durP2;ratioP2;P2;SDS_P1;SDS_P2;PMS_P1;PMS_P2;Temp;Humidity;BMP_temperature;BMP_pressure;BME280_temperature;BME280_humidity;BME280_pressure;Samples;Min_cycle;Max_cycle;Signal;HPM_P1;HPM_P2
2023/09/09 00:00:09;;;;;;;6.87;6.27;;;14.60;99.90;;;;;;5013000;28;20479;-65
2023/09/09 00:02:36;;;;;;;6.10;5.53;;;14.60;99.90;;;;;;5012937;28;20456;-65
2023/09/09 00:05:03;;;;;;;8.30;7.50;;;14.60;99.90;;;;;;5012514;28;20443;-65
2023/09/09 00:07:30;;;;;;;6.10;5.60;;;14.50;99.90;;;;;;5012783;28;20478;-65
2023/09/09 00:09:57;;;;;;;7.30;6.13;;;14.50;99.90;;;;;;5012934;28;20797;-65
2023/09/09 00:12:24;;;;;;;7.00;6.40;;;14.50;99.90;;;;;;5012911;28;20451;-65
2023/09/09 00:14:50;;;;;;;6.70;6.10;;;14.50;99.90;;;;;;5012371;28;20446;-65
2023/09/09 00:17:19;;;;;;;7.50;6.80;;;14.50;99.90;;;;;;5012420;28;20889;-65
2023/09/09 00:19:45;;;;;;;7.33;6.60;;;14.40;99.90;;;;;;5012210;28;20443;-65
2023/09/09 00:22:12;;;;;;;6.13;5.53;;;14.40;99.90;;;;;;5012733;28;20481;-65
2023/09/09 00:24:39;;;;;;;7.73;6.50;;;14.40;99.90;;;;;;5012383;28;20444;-65
2023/09/09 00:27:06;;;;;;;7.40;6.80;;;14.30;99.90;;;;;;5012262;28;20477;-65
2023/09/09 00:29:33;;;;;;;7.00;6.40;;;14.30;99.90;;;;;;5012511;28;20459;-65
2023/09/09 00:32:00;;;;;;;8.50;7.70;;;14.20;99.90;;;;;;5012311;28;20491;-65
2023/09/09 00:34:28;;;;;;;7.97;7.17;;;14.20;99.90;;;;;;5012248;28;20477;-65
2023/09/09 00:36:55;;;;;;;13.40;9.53;;;14.20;99.90;;;;;;5012187;28;20473;-65
2023/09/09 00:39:22;;;;;;;7.47;6.93;;;14.20;99.90;;;;;;5012480;28;20536;-65
2023/09/09 00:41:48;;;;;;;6.93;6.43;;;14.10;99.90;;;;;;5012074;28;20486;-65
2023/09/09 00:44:15;;;;;;;6.73;6.13;;;14.10;99.90;;;;;;5012169;28;20452;-65
2023/09/09 00:46:43;;;;;;;7.17;6.57;;;14.10;99.90;;;;;;5011620;28;20480;-65
2023/09/09 00:49:10;;;;;;;7.07;6.47;;;14.10;99.90;;;;;;5012267;28;20457;-65
2023/09/09 00:51:38;;;;;;;7.57;6.97;;;14.10;99.90;;;;;;5012210;28;20538;-65
2023/09/09 00:54:05;;;;;;;6.80;6.30;;;14.10;99.90;;;;;;5012095;28;20810;-65
2023/09/09 00:56:34;;;;;;;8.90;8.20;;;14.00;99.90;;;;;;5011560;28;20471;-65
2023/09/09 00:59:01;;;;;;;8.03;6.33;;;14.00;99.90;;;;;;5011948;28;20964;-65
2023/09/09 01:01:28;;;;;;;7.60;6.90;;;13.90;99.90;;;;;;5012063;28;20496;-65
2023/09/09 01:03:55;;;;;;;8.00;7.30;;;13.90;99.90;;;;;;5011999;28;20492;-65
2023/09/09 01:06:22;;;;;;;6.90;6.30;;;13.90;99.90;;;;;;5011533;28;20476;-65
2023/09/09 01:08:50;;;;;;;6.50;5.90;;;13.90;99.90;;;;;;5011929;28;20449;-65
2023/09/09 01:11:17;;;;;;;7.00;6.30;;;13.90;99.90;;;;;;5011790;28;20538;-65
2023/09/09 01:13:44;;;;;;;7.23;6.60;;;13.80;99.90;;;;;;5011768;28;20530;-65
2023/09/09 01:16:11;;;;;;;8.50;6.63;;;13.80;99.90;;;;;;5011582;28;20834;-65
2023/09/09 01:18:39;;;;;;;7.00;6.30;;;13.80;99.90;;;;;;5011743;28;20535;-65
2023/09/09 01:21:08;;;;;;;6.90;6.03;;;13.70;99.90;;;;;;5011717;28;20490;-65
2023/09/09 01:23:37;;;;;;;15.20;6.67;;;13.70;99.90;;;;;;5011555;28;20453;-65
2023/09/09 01:26:04;;;;;;;8.20;6.03;;;13.70;99.90;;;;;;5011110;28;20462;-65
2023/09/09 01:28:31;;;;;;;7.03;6.40;;;13.70;99.90;;;;;;5011660;28;20450;-65
2023/09/09 01:30:59;;;;;;;6.23;5.73;;;13.60;99.90;;;;;;5039074;22;20484;-65
2023/09/09 01:33:26;;;;;;;6.83;6.03;;;13.60;99.90;;;;;;5031745;28;20444;-65
2023/09/09 01:35:53;;;;;;;6.97;6.30;;;13.60;99.90;;;;;;5031090;28;20530;-65
2023/09/09 01:38:20;;;;;;;7.67;7.07;;;13.60;99.90;;;;;;5031074;28;20535;-65
2023/09/09 01:40:48;;;;;;;6.60;6.00;;;13.50;99.90;;;;;;5031514;28;21010;-65
2023/09/09 01:43:15;;;;;;;7.27;6.77;;;13.50;99.90;;;;;;5031711;28;20445;-65
2023/09/09 01:45:41;;;;;;;7.13;6.57;;;13.50;99.90;;;;;;5031634;28;20536;-65
2023/09/09 01:48:08;;;;;;;10.80;6.50;;;13.50;99.90;;;;;;5031964;28;20449;-65
2023/09/09 01:50:35;;;;;;;6.50;5.83;;;13.50;99.90;;;;;;5031687;28;20441;-65
2023/09/09 01:53:03;;;;;;;7.00;6.43;;;13.50;99.90;;;;;;5031582;28;20451;-65
2023/09/09 01:55:30;;;;;;;7.43;6.77;;;13.50;99.90;;;;;;5034489;28;20456;-65
2023/09/09 01:57:58;;;;;;;7.27;6.67;;;13.40;99.90;;;;;;5036065;28;20528;-65
2023/09/09 02:00:27;;;;;;;6.70;6.10;;;13.40;99.90;;;;;;5036053;28;20523;-65
2023/09/09 02:02:54;;;;;;;8.00;7.10;;;13.40;99.90;;;;;;5035657;28;20544;-65
2023/09/09 02:05:21;;;;;;;5.83;5.40;;;13.40;99.90;;;;;;5035289;28;20843;-65
2023/09/09 02:07:48;;;;;;;6.80;6.20;;;13.40;99.90;;;;;;5035517;28;20445;-65
2023/09/09 02:10:14;;;;;;;8.03;6.33;;;13.40;99.90;;;;;;5035661;28;20462;-65
2023/09/09 02:12:41;;;;;;;5.93;5.43;;;13.30;99.90;;;;;;5035629;28;20473;-65
2023/09/09 02:15:11;;;;;;;7.40;6.60;;;13.30;99.90;;;;;;5035150;28;20445;-65
2023/09/09 02:17:38;;;;;;;6.40;6.00;;;13.20;99.90;;;;;;5035636;28;20442;-65
2023/09/09 02:20:07;;;;;;;6.80;6.20;;;13.20;99.90;;;;;;5035874;28;20540;-65
2023/09/09 02:22:34;;;;;;;7.27;6.40;;;13.20;99.90;;;;;;5035449;28;20472;-65
2023/09/09 02:25:00;;;;;;;7.00;6.30;;;13.20;99.90;;;;;;5035327;28;20452;-65
2023/09/09 02:27:27;;;;;;;6.50;5.93;;;13.20;99.90;;;;;;5035477;28;20537;-65
2023/09/09 02:29:54;;;;;;;7.57;6.73;;;13.10;99.90;;;;;;5035560;28;20441;-65
2023/09/09 02:32:23;;;;;;;9.60;7.13;;;13.10;99.90;;;;;;5034940;28;20480;-65
2023/09/09 02:34:50;;;;;;;6.43;5.90;;;13.10;99.90;;;;;;5034748;28;20453;-65
2023/09/09 02:37:18;;;;;;;6.17;5.57;;;13.10;99.90;;;;;;5034786;28;20784;-65
2023/09/09 02:39:45;;;;;;;6.40;5.87;;;13.00;99.90;;;;;;5034844;28;21016;-65
2023/09/09 02:42:14;;;;;;;6.80;6.30;;;13.00;99.90;;;;;;5034937;28;20488;-65
2023/09/09 02:44:41;;;;;;;6.93;6.20;;;13.00;99.90;;;;;;5034827;28;20468;-65
2023/09/09 02:47:09;;;;;;;7.27;6.70;;;12.90;99.90;;;;;;5034919;28;20887;-65
2023/09/09 02:49:38;;;;;;;6.53;5.93;;;12.90;99.90;;;;;;5034848;28;20475;-65
2023/09/09 02:52:06;;;;;;;7.13;6.40;;;12.90;99.90;;;;;;5034819;28;20465;-65
2023/09/09 02:54:33;;;;;;;7.77;7.00;;;12.80;99.90;;;;;;5034632;28;21188;-65
2023/09/09 02:57:00;;;;;;;8.00;6.97;;;12.80;99.90;;;;;;5034714;28;20454;-65
2023/09/09 02:59:27;;;;;;;7.03;6.43;;;12.80;99.90;;;;;;5034824;28;20471;-65
2023/09/09 03:01:54;;;;;;;6.40;5.90;;;12.80;99.90;;;;;;5034384;28;20856;-65
2023/09/09 03:04:21;;;;;;;7.07;6.47;;;12.80;99.90;;;;;;5034283;28;20548;-65
2023/09/09 03:06:49;;;;;;;6.67;5.97;;;12.70;99.90;;;;;;5034126;28;21014;-65
2023/09/09 03:09:16;;;;;;;7.97;7.30;;;12.70;99.90;;;;;;5034345;28;20921;-65
2023/09/09 03:11:42;;;;;;;6.80;6.30;;;12.70;99.90;;;;;;5034321;28;20473;-65
2023/09/09 03:14:09;;;;;;;7.33;6.80;;;12.70;99.90;;;;;;5034279;28;20536;-65
2023/09/09 03:16:36;;;;;;;7.60;7.00;;;12.60;99.90;;;;;;5033582;28;20457;-65
2023/09/09 03:19:03;;;;;;;7.23;6.60;;;12.60;99.90;;;;;;5034155;28;20792;-65
2023/09/09 03:21:30;;;;;;;7.60;6.93;;;12.60;99.90;;;;;;5034236;28;20584;-65
2023/09/09 03:23:59;;;;;;;8.00;6.23;;;12.60;99.90;;;;;;5033437;28;20857;-65
2023/09/09 03:26:25;;;;;;;7.60;6.90;;;12.60;99.90;;;;;;5034060;28;20886;-66
2023/09/09 03:28:52;;;;;;;8.53;6.50;;;12.50;99.90;;;;;;5034122;28;20457;-65
2023/09/09 03:31:19;;;;;;;7.57;6.87;;;12.50;99.90;;;;;;5033815;28;20567;-65
2023/09/09 03:33:46;;;;;;;7.00;6.30;;;12.50;99.90;;;;;;5034231;28;20442;-65
2023/09/09 03:36:13;;;;;;;7.43;6.73;;;12.50;99.90;;;;;;5033607;28;20465;-65
2023/09/09 03:38:40;;;;;;;7.20;6.60;;;12.40;99.90;;;;;;5034115;28;20827;-65
2023/09/09 03:41:09;;;;;;;7.30;6.73;;;12.40;99.90;;;;;;5033732;28;20491;-65
2023/09/09 03:43:37;;;;;;;7.43;6.70;;;12.40;99.90;;;;;;5033532;28;20536;-65
2023/09/09 03:46:04;;;;;;;7.90;6.20;;;12.40;99.90;;;;;;5033409;28;20453;-65
2023/09/09 03:48:31;;;;;;;7.20;6.70;;;12.40;99.90;;;;;;5033844;28;20449;-65
2023/09/09 03:50:59;;;;;;;8.03;7.23;;;12.40;99.90;;;;;;5033409;28;21012;-65
2023/09/09 03:53:26;;;;;;;6.53;6.03;;;12.30;99.90;;;;;;5033587;28;20437;-65
2023/09/09 03:55:53;;;;;;;8.27;7.50;;;12.30;99.90;;;;;;5033191;28;20832;-65
2023/09/09 03:58:21;;;;;;;6.67;6.07;;;12.30;99.90;;;;;;5033472;28;20543;-65
2023/09/09 04:00:49;;;;;;;7.83;7.03;;;12.30;99.90;;;;;;5033219;28;20465;-65
2023/09/09 04:03:16;;;;;;;6.93;6.20;;;12.30;99.90;;;;;;5033350;28;20989;-64
2023/09/09 04:05:46;;;;;;;7.93;7.13;;;12.30;99.90;;;;;;5032844;28;20514;-65
2023/09/09 04:08:13;;;;;;;5.80;5.30;;;12.30;99.90;;;;;;5033339;28;20480;-65
2023/09/09 04:10:40;;;;;;;6.43;5.90;;;12.20;99.90;;;;;;5033168;28;20465;-65
2023/09/09 04:13:07;;;;;;;7.90;7.10;;;12.20;99.90;;;;;;5032908;28;20541;-65
2023/09/09 04:15:35;;;;;;;7.87;7.17;;;12.20;99.90;;;;;;5032956;28;20563;-65
2023/09/09 04:18:02;;;;;;;7.07;6.47;;;12.20;99.90;;;;;;5032318;28;20455;-65
2023/09/09 04:20:29;;;;;;;9.93;6.67;;;12.20;99.90;;;;;;5032891;28;20570;-65
2023/09/09 04:22:56;;;;;;;6.73;6.20;;;12.20;99.90;;;;;;5032777;28;20495;-65
2023/09/09 04:25:22;;;;;;;6.90;6.33;;;12.20;99.90;;;;;;5032491;28;20957;-65
2023/09/09 04:27:49;;;;;;;7.97;7.30;;;12.10;99.90;;;;;;5032599;28;21212;-65
2023/09/09 04:30:16;;;;;;;8.70;7.90;;;12.10;99.90;;;;;;5032755;28;20536;-65
2023/09/09 04:32:44;;;;;;;7.47;6.87;;;12.10;99.90;;;;;;5032335;28;20473;-65
2023/09/09 04:35:11;;;;;;;8.93;8.03;;;12.10;99.90;;;;;;5032374;28;20445;-65
2023/09/09 04:37:38;;;;;;;8.57;7.90;;;12.10;99.90;;;;;;5032320;28;20449;-65
2023/09/09 04:40:06;;;;;;;7.50;6.60;;;12.10;99.90;;;;;;5032424;28;20464;-65
2023/09/09 04:42:33;;;;;;;8.00;7.30;;;12.10;99.90;;;;;;5032363;28;20932;-65
2023/09/09 04:45:00;;;;;;;6.87;6.27;;;12.00;99.90;;;;;;5032204;28;20456;-65
2023/09/09 04:47:27;;;;;;;7.20;6.17;;;12.00;99.90;;;;;;5032166;28;20444;-65
2023/09/09 04:49:58;;;;;;;7.37;6.77;;;12.00;99.90;;;;;;5032094;28;20550;-65
2023/09/09 04:52:25;;;;;;;7.57;6.87;;;12.00;99.90;;;;;;5032036;28;20468;-65
2023/09/09 04:54:52;;;;;;;6.93;6.00;;;12.00;99.90;;;;;;5031940;28;21029;-65
2023/09/09 04:57:19;;;;;;;7.20;6.53;;;11.90;99.90;;;;;;5032220;28;20452;-65
2023/09/09 04:59:45;;;;;;;8.33;7.63;;;11.90;99.90;;;;;;5032056;28;20445;-65
2023/09/09 05:02:13;;;;;;;9.00;8.20;;;11.90;99.90;;;;;;5031851;28;20576;-65
2023/09/09 05:04:40;;;;;;;7.57;6.97;;;11.90;99.90;;;;;;5031455;28;20558;-62
2023/09/09 05:07:10;;;;;;;7.23;6.53;;;11.80;99.90;;;;;;5031892;28;20458;-62
2023/09/09 05:09:37;;;;;;;8.33;7.00;;;11.80;99.90;;;;;;5032111;28;20450;-62
2023/09/09 05:12:04;;;;;;;7.10;6.43;;;11.80;99.90;;;;;;5031963;28;20862;-62
2023/09/09 05:14:31;;;;;;;10.83;6.90;;;11.80;99.90;;;;;;5031586;28;20815;-63
2023/09/09 05:16:58;;;;;;;7.13;6.50;;;11.80;99.90;;;;;;5031623;28;20456;-62
2023/09/09 05:19:25;;;;;;;10.70;7.90;;;11.80;99.90;;;;;;5031475;28;20454;-63
2023/09/09 05:21:52;;;;;;;7.60;6.90;;;11.90;99.90;;;;;;5031708;28;20491;-62
2023/09/09 05:24:20;;;;;;;7.77;6.97;;;11.90;99.90;;;;;;5031520;28;21023;-62
2023/09/09 05:26:47;;;;;;;9.63;7.40;;;11.90;99.90;;;;;;5031482;28;20449;-62
2023/09/09 05:29:13;;;;;;;7.20;6.50;;;11.90;99.90;;;;;;5030483;28;20455;-62
2023/09/09 05:31:40;;;;;;;7.13;6.50;;;11.90;99.90;;;;;;5031334;28;20477;-62
2023/09/09 05:34:07;;;;;;;8.43;6.67;;;11.90;99.90;;;;;;5031205;28;20451;-62
2023/09/09 05:36:34;;;;;;;8.70;8.00;;;12.00;99.90;;;;;;5031247;28;20453;-62
2023/09/09 05:39:01;;;;;;;13.23;7.57;;;12.00;99.90;;;;;;5031358;28;20503;-62
2023/09/09 05:41:29;;;;;;;8.60;7.70;;;12.00;99.90;;;;;;5031294;28;20501;-62
2023/09/09 05:43:56;;;;;;;7.23;6.50;;;12.00;99.90;;;;;;5031201;28;20452;-62
2023/09/09 05:46:23;;;;;;;6.97;6.30;;;12.00;99.90;;;;;;5030995;28;20448;-62
2023/09/09 05:48:50;;;;;;;8.07;7.37;;;12.00;99.90;;;;;;5031537;28;20449;-62
2023/09/09 05:51:18;;;;;;;8.00;7.40;;;12.00;99.90;;;;;;5031192;28;20507;-62
2023/09/09 05:53:45;;;;;;;9.03;8.23;;;12.10;99.90;;;;;;5031283;28;20449;-62
2023/09/09 05:56:12;;;;;;;7.57;6.87;;;12.10;99.90;;;;;;5030930;28;20939;-62
2023/09/09 05:58:40;;;;;;;8.90;8.10;;;12.10;99.90;;;;;;5031238;28;20891;-62
2023/09/09 06:01:07;;;;;;;8.13;7.30;;;12.20;99.90;;;;;;5030824;28;20500;-62
2023/09/09 06:03:35;;;;;;;8.77;7.90;;;12.20;99.90;;;;;;5031016;28;20486;-62
2023/09/09 06:06:02;;;;;;;8.23;7.43;;;12.30;99.90;;;;;;5030955;28;20453;-62
2023/09/09 06:08:29;;;;;;;8.10;7.30;;;12.30;99.90;;;;;;5031162;28;20544;-62
2023/09/09 06:10:56;;;;;;;8.00;7.30;;;12.30;99.90;;;;;;5030915;28;21031;-62
2023/09/09 06:13:23;;;;;;;8.30;7.50;;;12.30;99.90;;;;;;5030942;28;21237;-62
2023/09/09 06:15:51;;;;;;;9.40;7.57;;;12.40;99.90;;;;;;5030749;28;20537;-62
2023/09/09 06:18:18;;;;;;;7.60;6.73;;;12.40;99.90;;;;;;5031232;28;20536;-62
2023/09/09 06:20:47;;;;;;;8.20;7.50;;;12.50;99.90;;;;;;5031022;28;21009;-62
2023/09/09 06:23:14;;;;;;;7.90;7.20;;;12.50;99.90;;;;;;5031006;28;20496;-62
2023/09/09 06:25:41;;;;;;;7.73;7.13;;;12.50;99.90;;;;;;5030702;28;20484;-62
2023/09/09 06:28:08;;;;;;;8.60;7.80;;;12.60;99.90;;;;;;5030879;28;20475;-62
2023/09/09 06:30:35;;;;;;;7.90;7.30;;;12.60;99.90;;;;;;5030863;28;20451;-62
2023/09/09 06:33:04;;;;;;;8.57;7.77;;;12.70;99.90;;;;;;5031123;28;20812;-62
2023/09/09 06:35:30;;;;;;;7.97;7.37;;;12.70;99.90;;;;;;5030603;28;20450;-62
2023/09/09 06:37:57;;;;;;;9.47;7.40;;;12.80;99.90;;;;;;5031018;28;20544;-62
2023/09/09 06:40:24;;;;;;;7.47;6.87;;;12.90;99.90;;;;;;5031958;28;20448;-62
2023/09/09 06:42:51;;;;;;;10.80;7.67;;;12.90;99.90;;;;;;5034610;28;20520;-63
2023/09/09 06:45:18;;;;;;;9.70;8.80;;;13.10;99.90;;;;;;5034574;28;20537;-62
2023/09/09 06:47:46;;;;;;;8.03;7.23;;;13.20;99.90;;;;;;5034712;28;20454;-63
2023/09/09 06:50:14;;;;;;;8.73;7.90;;;13.40;99.90;;;;;;5030801;28;20455;-63
2023/09/09 06:52:41;;;;;;;9.57;7.00;;;13.60;99.90;;;;;;5014339;28;20466;-63
2023/09/09 06:55:08;;;;;;;9.07;7.13;;;13.80;99.90;;;;;;5014048;28;20448;-63
2023/09/09 06:57:35;;;;;;;7.70;7.10;;;14.00;99.90;;;;;;5014452;28;20462;-63
2023/09/09 07:00:04;;;;;;;9.37;7.80;;;14.20;99.90;;;;;;5033651;28;20449;-62
2023/09/09 07:02:31;;;;;;;8.17;7.43;;;14.50;99.90;;;;;;5033647;28;20552;-63
2023/09/09 07:04:57;;;;;;;7.57;7.07;;;14.70;99.90;;;;;;5033532;28;20815;-63
2023/09/09 07:07:26;;;;;;;8.33;7.57;;;14.90;99.90;;;;;;5033573;28;20452;-63
2023/09/09 07:09:52;;;;;;;8.53;7.83;;;15.10;99.90;;;;;;5033449;28;20538;-63
2023/09/09 07:12:19;;;;;;;7.30;6.80;;;15.30;99.90;;;;;;5033512;28;20446;-63
2023/09/09 07:14:46;;;;;;;7.27;6.57;;;15.50;99.90;;;;;;5033227;28;20451;-63
2023/09/09 07:17:13;;;;;;;8.50;7.87;;;15.70;99.90;;;;;;5033447;28;20542;-63
2023/09/09 07:19:40;;;;;;;9.50;7.80;;;15.90;99.90;;;;;;5033572;28;20458;-63
2023/09/09 07:22:07;;;;;;;8.00;7.20;;;16.10;99.90;;;;;;5032947;28;21017;-63
2023/09/09 07:24:35;;;;;;;8.53;7.80;;;16.30;99.90;;;;;;5032828;28;20567;-63
2023/09/09 07:27:03;;;;;;;9.23;8.50;;;16.50;99.90;;;;;;5033440;28;20451;-63
2023/09/09 07:29:30;;;;;;;9.00;8.20;;;16.70;99.90;;;;;;5033338;28;20876;-62
2023/09/09 07:31:57;;;;;;;8.83;7.93;;;16.80;99.90;;;;;;5032915;28;20512;-63
2023/09/09 07:34:24;;;;;;;9.60;8.60;;;17.00;99.90;;;;;;5032961;28;20950;-63
2023/09/09 07:36:51;;;;;;;8.60;7.90;;;17.20;99.90;;;;;;5033024;28;20457;-63
2023/09/09 07:39:18;;;;;;;10.07;9.17;;;17.30;99.90;;;;;;5032464;28;20452;-63
2023/09/09 07:41:46;;;;;;;11.30;10.13;;;17.50;99.90;;;;;;5032277;28;20484;-63
2023/09/09 07:44:13;;;;;;;11.37;10.30;;;17.60;99.90;;;;;;5032978;28;20491;-63
2023/09/09 07:46:40;;;;;;;9.80;8.83;;;17.60;99.90;;;;;;5032743;28;20824;-63
2023/09/09 07:49:07;;;;;;;10.67;9.60;;;17.80;99.90;;;;;;5032871;28;20874;-63
2023/09/09 07:51:35;;;;;;;11.30;10.10;;;17.90;99.90;;;;;;5031771;28;20475;-63
2023/09/09 07:54:01;;;;;;;10.83;10.00;;;18.00;99.90;;;;;;5032733;28;20532;-63
2023/09/09 07:56:28;;;;;;;10.20;9.30;;;18.10;99.90;;;;;;5032436;28;20449;-63
2023/09/09 07:58:57;;;;;;;9.27;8.43;;;18.30;99.90;;;;;;5032704;28;20459;-63
2023/09/09 08:01:23;;;;;;;10.10;9.17;;;18.50;99.90;;;;;;5032507;28;20497;-63
2023/09/09 08:03:50;;;;;;;11.07;10.27;;;18.60;99.90;;;;;;5032411;28;20498;-63
2023/09/09 08:06:16;;;;;;;13.07;11.97;;;18.80;99.90;;;;;;5032077;28;20451;-62
2023/09/09 08:08:43;;;;;;;10.53;9.70;;;18.90;99.90;;;;;;5032620;28;20535;-63
2023/09/09 08:11:10;;;;;;;10.73;9.93;;;19.00;99.90;;;;;;5031979;28;20732;-63
2023/09/09 08:13:36;;;;;;;11.63;10.53;;;19.10;99.90;;;;;;5032352;28;20449;-63
2023/09/09 08:16:05;;;;;;;11.27;9.93;;;19.20;99.90;;;;;;5032042;28;20441;-63
2023/09/09 08:18:32;;;;;;;11.63;10.63;;;19.30;99.90;;;;;;5032140;28;20516;-63
2023/09/09 08:21:00;;;;;;;10.40;9.53;;;19.40;99.90;;;;;;5031593;28;20560;-63
2023/09/09 08:23:27;;;;;;;11.70;10.67;;;19.50;99.90;;;;;;5031947;28;20516;-63
2023/09/09 08:25:55;;;;;;;11.80;10.03;;;19.60;99.90;;;;;;5031792;28;20549;-63
2023/09/09 08:28:22;;;;;;;10.63;9.20;;;19.70;99.90;;;;;;5032068;28;20449;-63
2023/09/09 08:30:49;;;;;;;10.63;9.70;;;19.90;99.90;;;;;;5031787;28;20477;-63
2023/09/09 08:33:17;;;;;;;11.87;9.47;;;20.00;99.90;;;;;;5031729;28;20438;-63
2023/09/09 08:35:45;;;;;;;10.07;9.00;;;20.20;99.90;;;;;;5031727;28;20533;-63
2023/09/09 08:38:11;;;;;;;11.03;9.70;;;20.30;99.90;;;;;;5031881;28;20494;-63
2023/09/09 08:40:56;;;;;;;9.23;8.43;;;20.40;99.90;;;;;;5031816;28;20549;-63
2023/09/09 08:43:34;;;;;;;10.03;8.80;;;20.60;99.90;;;;;;5031580;28;20487;-63
2023/09/09 08:46:11;;;;;;;9.97;9.13;;;20.70;99.90;;;;;;5031790;28;20818;-63
2023/09/09 08:48:42;;;;;;;10.90;10.00;;;20.80;99.90;;;;;;5031837;28;20538;-63
2023/09/09 08:51:12;;;;;;;9.63;8.80;;;20.90;99.90;;;;;;5031713;28;20473;-63
2023/09/09 08:53:41;;;;;;;8.80;8.20;;;21.00;99.90;;;;;;5031460;28;20936;-63
2023/09/09 08:56:08;;;;;;;10.40;9.50;;;21.10;99.90;;;;;;5030761;28;20442;-63
2023/09/09 08:58:35;;;;;;;10.20;9.40;;;21.20;99.90;;;;;;5031592;28;20539;-63
2023/09/09 09:01:02;;;;;;;10.97;9.97;;;21.30;99.90;;;;;;5031615;28;20468;-63
2023/09/09 09:03:29;;;;;;;16.40;12.17;;;21.40;99.90;;;;;;5031241;28;20497;-63
2023/09/09 09:05:59;;;;;;;13.43;12.13;;;21.50;99.90;;;;;;5031094;28;20546;-63
2023/09/09 09:08:25;;;;;;;8.70;8.00;;;21.60;99.90;;;;;;5031507;28;20494;-63
2023/09/09 09:10:52;;;;;;;10.50;9.53;;;21.70;99.90;;;;;;5031354;28;20552;-63
2023/09/09 09:13:19;;;;;;;10.63;9.87;;;21.80;99.90;;;;;;5031225;28;20448;-63
2023/09/09 09:15:46;;;;;;;10.80;10.00;;;22.00;99.90;;;;;;5031214;28;20445;-63
2023/09/09 09:18:13;;;;;;;15.53;14.17;;;22.10;99.90;;;;;;5031502;28;20448;-63
2023/09/09 09:20:40;;;;;;;10.40;9.60;;;22.20;99.90;;;;;;5031132;28;21226;-63
2023/09/09 09:23:12;;;;;;;9.37;8.67;;;22.30;99.90;;;;;;5030836;28;20572;-63
2023/09/09 09:25:42;;;;;;;9.00;8.23;;;22.40;99.90;;;;;;5030953;28;21013;-63
2023/09/09 09:28:09;;;;;;;10.13;9.33;;;22.60;99.90;;;;;;5031076;28;20447;-63
2023/09/09 09:30:36;;;;;;;10.13;9.20;;;22.70;99.90;;;;;;5043198;22;20585;-64
2023/09/09 09:33:03;;;;;;;9.23;8.30;;;22.80;99.90;;;;;;5011013;28;20452;-64
2023/09/09 09:35:31;;;;;;;9.77;8.90;;;22.90;99.90;;;;;;5011076;28;20457;-64
2023/09/09 09:37:59;;;;;;;10.03;9.27;;;23.00;99.90;;;;;;5011090;28;20542;-64
2023/09/09 09:40:29;;;;;;;9.60;8.70;;;23.00;99.90;;;;;;5011250;28;20470;-64
2023/09/09 09:42:56;;;;;;;9.37;8.63;;;23.10;99.90;;;;;;5011201;28;20486;-64
2023/09/09 09:45:25;;;;;;;9.13;8.43;;;23.30;99.90;;;;;;5011187;28;20468;-64
2023/09/09 09:47:53;;;;;;;9.60;8.90;;;23.30;99.90;;;;;;5011334;28;20512;-64
2023/09/09 09:50:22;;;;;;;9.20;8.50;;;23.40;99.90;;;;;;5011024;28;20477;-64
2023/09/09 09:52:55;;;;;;;8.70;8.10;;;23.40;99.90;;;;;;5011268;28;20559;-64
2023/09/09 09:55:22;;;;;;;8.73;8.03;;;23.60;99.90;;;;;;5011039;28;20877;-64
2023/09/09 09:57:54;;;;;;;9.50;8.80;;;23.70;99.90;;;;;;5011318;28;20530;-64
2023/09/09 10:00:21;;;;;;;9.60;8.80;;;23.80;99.90;;;;;;5011240;28;21101;-64
2023/09/09 10:02:52;;;;;;;9.77;8.87;;;23.90;99.90;;;;;;5010929;28;20487;-64
2023/09/09 10:05:21;;;;;;;9.07;8.23;;;24.10;99.90;;;;;;5010357;28;20542;-64
2023/09/09 10:07:53;;;;;;;9.80;9.10;;;24.10;99.90;;;;;;5011296;28;20446;-64
2023/09/09 10:10:23;;;;;;;9.50;8.80;;;24.30;99.90;;;;;;5011055;28;20471;-64
2023/09/09 10:12:58;;;;;;;10.90;10.00;;;24.40;99.90;;;;;;5011060;28;20464;-64
2023/09/09 10:15:26;;;;;;;9.63;8.97;;;24.60;99.90;;;;;;5011614;28;20549;-64
2023/09/09 10:17:54;;;;;;;9.17;8.37;;;24.60;99.90;;;;;;5015201;28;20535;-64
2023/09/09 10:20:23;;;;;;;10.40;9.40;;;24.70;99.90;;;;;;5015082;28;20553;-64
2023/09/09 10:22:53;;;;;;;11.00;10.10;;;24.80;99.90;;;;;;5014743;28;20561;-64
2023/09/09 10:25:21;;;;;;;9.33;8.63;;;24.90;99.90;;;;;;5014862;28;20442;-64
2023/09/09 10:27:49;;;;;;;8.83;8.13;;;25.00;99.90;;;;;;5014799;28;20536;-64
2023/09/09 10:30:18;;;;;;;11.00;10.00;;;25.10;99.90;;;;;;5014620;28;20481;-64
2023/09/09 10:32:46;;;;;;;10.20;9.40;;;25.20;99.90;;;;;;5014683;28;20461;-64
2023/09/09 10:35:15;;;;;;;9.40;8.70;;;25.30;99.90;;;;;;5014434;28;20454;-64
2023/09/09 10:37:44;;;;;;;10.10;9.23;;;25.40;99.90;;;;;;5014704;28;20445;-64
2023/09/09 10:40:12;;;;;;;10.03;9.23;;;25.50;99.90;;;;;;5013137;28;20473;-64
2023/09/09 10:42:40;;;;;;;9.47;8.80;;;25.60;99.90;;;;;;4992936;28;20558;-65
2023/09/09 10:48:03;;;;;;;9.13;8.53;;;25.70;99.90;;;;;;5088167;28;20532;-64
2023/09/09 10:50:44;;;;;;;9.30;8.60;;;25.80;99.40;;;;;;5078599;28;20912;-64
2023/09/09 10:53:16;;;;;;;9.17;8.47;;;25.90;99.30;;;;;;5067267;28;20442;-64
2023/09/09 10:55:43;;;;;;;10.37;9.47;;;26.00;99.50;;;;;;5067468;28;20522;-64
2023/09/09 10:58:10;;;;;;;9.43;8.60;;;26.10;99.50;;;;;;5067732;28;20446;-65
2023/09/09 11:00:39;;;;;;;9.20;8.57;;;26.20;99.90;;;;;;5067566;28;20485;-64
2023/09/09 11:03:11;;;;;;;9.40;8.50;;;26.30;99.90;;;;;;5067556;28;20820;-64
2023/09/09 11:05:57;;;;;;;9.97;9.13;;;26.30;99.90;;;;;;5067085;28;20900;-64
2023/09/09 11:08:44;;;;;;;9.20;8.40;;;26.40;97.90;;;;;;5067787;28;20451;-64
2023/09/09 11:11:13;;;;;;;10.10;9.30;;;26.50;97.30;;;;;;5067496;28;20837;-64
2023/09/09 11:13:41;;;;;;;8.30;7.70;;;26.60;97.90;;;;;;5067260;28;20497;-64
2023/09/09 11:16:08;;;;;;;9.37;8.67;;;26.70;97.80;;;;;;5067105;28;20453;-65
2023/09/09 11:18:37;;;;;;;9.80;9.10;;;26.70;97.30;;;;;;5067590;28;20445;-64
2023/09/09 11:21:05;;;;;;;9.17;8.43;;;26.80;96.20;;;;;;5067199;28;20548;-65
2023/09/09 11:23:33;;;;;;;9.20;8.50;;;26.90;96.20;;;;;;5067347;28;20449;-64
2023/09/09 11:26:01;;;;;;;8.67;8.17;;;27.00;95.80;;;;;;5066734;28;20444;-64
2023/09/09 11:28:28;;;;;;;8.73;8.13;;;27.10;95.60;;;;;;5067010;28;20455;-64
2023/09/09 11:30:55;;;;;;;8.83;8.13;;;27.30;96.00;;;;;;5066917;28;20544;-64
2023/09/09 11:33:25;;;;;;;9.00;8.30;;;27.40;94.80;;;;;;5067008;28;20468;-66
2023/09/09 11:35:53;;;;;;;8.83;8.23;;;27.50;95.10;;;;;;5066665;28;20452;-65
2023/09/09 11:38:20;;;;;;;8.27;7.67;;;27.50;94.20;;;;;;5066912;28;20448;-65
2023/09/09 11:40:46;;;;;;;9.10;8.40;;;27.60;93.80;;;;;;5066474;28;20467;-64
2023/09/09 11:43:15;;;;;;;8.80;8.10;;;27.70;94.50;;;;;;5066761;28;20457;-65
2023/09/09 11:45:42;;;;;;;8.80;8.17;;;27.70;93.60;;;;;;5066408;28;20517;-65
2023/09/09 11:48:13;;;;;;;8.30;7.70;;;27.80;93.30;;;;;;5066964;28;20482;-65
2023/09/09 11:50:40;;;;;;;9.10;8.40;;;27.90;94.00;;;;;;5066410;28;20470;-65
2023/09/09 11:53:11;;;;;;;8.70;8.10;;;27.90;91.60;;;;;;5066437;28;20916;-64
2023/09/09 11:55:38;;;;;;;7.30;6.73;;;28.00;92.20;;;;;;5066182;28;20450;-65
2023/09/09 11:58:05;;;;;;;7.90;7.40;;;28.10;92.70;;;;;;5060525;28;20478;-65
2023/09/09 12:00:33;;;;;;;8.60;7.90;;;28.30;91.50;;;;;;5053243;28;20460;-65
2023/09/09 12:03:00;;;;;;;9.10;8.40;;;28.50;91.90;;;;;;5053313;28;20456;-65
2023/09/09 12:05:29;;;;;;;8.33;7.80;;;28.60;90.20;;;;;;5036549;28;20447;-65
2023/09/09 12:07:57;;;;;;;9.03;8.33;;;28.80;90.80;;;;;;5052916;28;20492;-65
2023/09/09 12:10:28;;;;;;;8.07;7.30;;;28.90;89.20;;;;;;5053382;28;20487;-65
2023/09/09 12:12:55;;;;;;;8.17;7.67;;;29.10;89.00;;;;;;5053150;28;20445;-65
2023/09/09 12:15:22;;;;;;;7.73;7.23;;;29.20;85.80;;;;;;5052566;28;21317;-65
2023/09/09 12:17:49;;;;;;;8.40;7.83;;;29.30;85.50;;;;;;5053002;28;20463;-64
2023/09/09 12:20:16;;;;;;;7.53;6.83;;;29.40;85.80;;;;;;5052846;28;20547;-66
2023/09/09 12:22:47;;;;;;;8.30;7.60;;;29.70;86.20;;;;;;5052840;28;20992;-65
2023/09/09 12:25:30;;;;;;;7.70;7.10;;;29.80;85.10;;;;;;5052858;28;20886;-65
2023/09/09 12:27:58;;;;;;;10.00;9.10;;;30.00;82.70;;;;;;5051445;28;20485;-65
2023/09/09 12:30:31;;;;;;;9.33;8.63;;;30.10;83.40;;;;;;5052699;28;21018;-65
2023/09/09 12:33:09;;;;;;;8.07;7.47;;;30.20;82.20;;;;;;5052510;28;20813;-65
2023/09/09 12:35:37;;;;;;;9.60;8.93;;;30.30;82.60;;;;;;5037548;28;20448;-65
2023/09/09 12:38:04;;;;;;;8.50;7.80;;;30.40;83.80;;;;;;5052699;28;20527;-66
2023/09/09 12:40:48;;;;;;;8.70;8.10;;;30.60;82.30;;;;;;5052563;28;20465;-66
2023/09/09 12:43:15;;;;;;;8.30;7.63;;;30.80;82.80;;;;;;5052278;28;20447;-66
2023/09/09 12:45:47;;;;;;;7.17;6.67;;;31.00;81.50;;;;;;5052259;28;20455;-65
2023/09/09 12:48:14;;;;;;;8.77;8.17;;;31.30;79.50;;;;;;5052450;28;20508;-65
2023/09/09 12:50:41;;;;;;;9.00;8.20;;;31.50;77.30;;;;;;5052393;28;20474;-66